Terminal Aerodrome Forecast
Issued by NWS Cleveland, OH

Home | Current Version | Previous Version | Graphics & Text | Print | Product List | Glossary On
Versions: 1 2 3 4 5 6 7 8 9 10 11 12 13 14 15 16 17 18 19 20 21 22 23 24
389
FTUS41 KCLE 232021 AAB
TAFMFD
TAF AMD
KMFD 232021Z 2320/2418 01009KT 5SM BR BKN009 OVC015
      TEMPO 2320/2324 2SM -RA BKN005
     FM240000 01007KT 2SM -DZ BR BKN005 OVC012
     FM240500 34004KT 3/4SM -DZ BR OVC002
     FM241700 29008KT 5SM BR OVC010=

USA.gov is the U.S. government's official web portal to all federal, state and local government web resources and services.